createdAt,value
2023-03-22T00:02:04.515Z,6.50
2023-03-22T00:04:33.840Z,11.05
2023-03-22T00:07:03.064Z,9.00
2023-03-22T00:09:32.946Z,9.75
2023-03-22T00:12:02.164Z,6.17
2023-03-22T00:14:31.480Z,12.75
2023-03-22T00:17:00.682Z,7.83
2023-03-22T00:19:30.323Z,10.35
2023-03-22T00:22:00.752Z,10.08
2023-03-22T00:24:30.315Z,7.55
2023-03-22T00:27:00.363Z,11.48
2023-03-22T00:29:29.860Z,7.50
2023-03-22T00:31:59.429Z,8.28
2023-03-22T00:34:33.424Z,8.25
2023-03-22T00:37:04.694Z,8.83
2023-03-22T00:39:34.277Z,7.80
2023-03-22T00:42:06.172Z,8.38
2023-03-22T00:44:35.839Z,8.38
2023-03-22T00:47:05.331Z,9.78
2023-03-22T00:49:36.497Z,8.28
2023-03-22T00:52:06.546Z,9.65
2023-03-22T00:54:35.957Z,10.72
2023-03-22T00:57:05.703Z,7.00
2023-03-22T00:59:36.760Z,9.25
2023-03-22T01:02:06.766Z,11.53
2023-03-22T01:04:36.170Z,12.25
2023-03-22T01:07:05.857Z,9.90
2023-03-22T01:09:36.798Z,8.85
2023-03-22T01:12:06.165Z,10.30
2023-03-22T01:14:35.430Z,8.05
2023-03-22T01:17:04.865Z,11.33
2023-03-22T01:19:36.197Z,7.62
2023-03-22T01:22:07.160Z,8.80
2023-03-22T01:24:37.299Z,12.80
2023-03-22T01:27:07.168Z,15.38
2023-03-22T01:29:36.796Z,9.48
2023-03-22T01:32:06.797Z,13.45
2023-03-22T01:34:36.516Z,11.93
2023-03-22T01:37:06.438Z,9.40
2023-03-22T01:39:36.411Z,13.32
2023-03-22T01:42:06.995Z,13.62
2023-03-22T01:44:39.045Z,11.15
2023-03-22T01:47:11.173Z,12.80
2023-03-22T01:49:41.491Z,13.22
2023-03-22T01:52:13.172Z,13.55
2023-03-22T01:54:48.977Z,14.53
2023-03-22T01:57:33.541Z,18.20
2023-03-22T02:00:04.920Z,16.17
2023-03-22T02:02:46.126Z,18.42
2023-03-22T02:05:18.062Z,17.90
2023-03-22T02:07:47.798Z,22.60
2023-03-22T02:10:20.496Z,23.67
2023-03-22T02:12:57.878Z,24.23
2023-03-22T02:15:47.350Z,24.50
2023-03-22T02:18:45.783Z,22.37
2023-03-22T02:21:33.424Z,25.02
2023-03-22T02:24:14.147Z,22.45
2023-03-22T02:27:12.480Z,27.62
2023-03-22T02:29:48.316Z,25.65
2023-03-22T02:32:37.530Z,20.77
2023-03-22T02:35:36.496Z,25.15
2023-03-22T02:38:14.799Z,20.85
2023-03-22T02:41:13.901Z,27.13
2023-03-22T02:44:09.116Z,22.15
2023-03-22T02:47:04.265Z,21.97
2023-03-22T02:49:47.560Z,25.97
2023-03-22T02:55:11.436Z,21.40
2023-03-22T02:57:58.366Z,23.07
2023-03-22T03:00:28.107Z,23.62
2023-03-22T03:03:02.037Z,26.87
2023-03-22T03:08:01.815Z,21.52
2023-03-22T03:10:32.705Z,23.25
2023-03-22T03:13:02.304Z,20.62
2023-03-22T03:15:31.704Z,23.20
2023-03-22T03:18:16.710Z,22.17
2023-03-22T03:21:05.658Z,19.27
2023-03-22T03:23:54.220Z,21.60
2023-03-22T03:26:53.820Z,19.87
2023-03-22T03:29:41.588Z,19.37
2023-03-22T03:32:19.944Z,26.77
2023-03-22T03:34:53.014Z,20.68
2023-03-22T03:37:26.279Z,23.30
2023-03-22T03:40:01.722Z,24.07
2023-03-22T03:42:31.969Z,22.85
2023-03-22T03:45:01.365Z,22.95
2023-03-22T03:47:33.552Z,22.60
2023-03-22T03:50:04.317Z,20.82
2023-03-22T03:52:33.950Z,20.60
2023-03-22T03:55:03.153Z,19.42
2023-03-22T03:57:34.521Z,24.87
2023-03-22T04:00:04.295Z,19.23
2023-03-22T04:02:45.568Z,20.02
2023-03-22T04:05:16.906Z,20.50
2023-03-22T04:07:46.770Z,23.07
2023-03-22T04:10:16.658Z,19.35
2023-03-22T04:12:45.939Z,20.62
2023-03-22T04:15:17.116Z,21.30
2023-03-22T04:17:48.164Z,18.98
2023-03-22T04:20:17.793Z,17.52
2023-03-22T04:22:49.087Z,18.52
2023-03-22T04:25:20.755Z,18.92
2023-03-22T04:27:52.124Z,17.40
2023-03-22T04:30:22.937Z,20.12
2023-03-22T04:33:05.799Z,16.87
2023-03-22T04:35:36.992Z,22.00
2023-03-22T04:38:07.908Z,18.00
2023-03-22T04:40:38.969Z,17.00
2023-03-22T04:43:14.003Z,17.27
2023-03-22T04:45:48.894Z,15.72
2023-03-22T04:48:21.677Z,15.13
2023-03-22T04:50:53.420Z,19.75
2023-03-22T04:55:59.412Z,16.82
2023-03-22T04:58:30.438Z,17.55
2023-03-22T05:00:59.747Z,17.65
2023-03-22T05:03:29.183Z,17.02
2023-03-22T05:06:01.016Z,16.75
2023-03-22T05:08:32.491Z,14.80
2023-03-22T05:11:11.731Z,18.55
2023-03-22T05:13:42.259Z,17.32
2023-03-22T05:16:11.797Z,16.23
2023-03-22T05:18:44.532Z,17.25
2023-03-22T05:21:16.468Z,16.80
2023-03-22T05:23:47.788Z,19.30
2023-03-22T05:26:19.572Z,17.57
2023-03-22T05:28:48.993Z,14.18
2023-03-22T05:31:21.763Z,17.65
2023-03-22T05:33:53.480Z,14.80
2023-03-22T05:36:24.245Z,14.25
2023-03-22T05:38:58.622Z,16.73
2023-03-22T05:41:28.031Z,17.67
2023-03-22T05:43:57.207Z,17.10
2023-03-22T05:46:26.664Z,11.18
2023-03-22T05:49:16.092Z,14.33
2023-03-22T05:51:45.815Z,11.10
2023-03-22T05:54:16.016Z,12.45
2023-03-22T05:56:47.793Z,14.15
2023-03-22T05:59:17.126Z,17.12
2023-03-22T06:01:46.932Z,12.07
2023-03-22T06:04:18.861Z,13.13
2023-03-22T06:06:50.538Z,15.63
2023-03-22T06:09:24.258Z,14.87
2023-03-22T06:11:53.868Z,12.43
2023-03-22T06:14:24.844Z,15.78
2023-03-22T06:16:55.862Z,10.55
2023-03-22T06:19:26.987Z,12.28
2023-03-22T06:21:56.859Z,11.70
2023-03-22T06:24:27.778Z,14.90
2023-03-22T06:26:57.328Z,9.00
2023-03-22T06:29:27.163Z,11.28
2023-03-22T06:31:58.228Z,11.35
2023-03-22T06:34:27.649Z,9.98
2023-03-22T06:36:57.069Z,10.63
2023-03-22T06:39:28.487Z,10.15
2023-03-22T06:41:57.763Z,9.38
2023-03-22T06:44:27.531Z,8.48
2023-03-22T06:47:01.668Z,13.80
2023-03-22T06:49:35.888Z,13.43
2023-03-22T06:52:05.765Z,10.35
2023-03-22T06:54:36.022Z,10.95
2023-03-22T06:57:05.547Z,9.90
2023-03-22T06:59:36.083Z,8.83
2023-03-22T07:02:06.981Z,11.43
2023-03-22T07:04:36.848Z,8.23
2023-03-22T07:07:07.015Z,17.23
2023-03-22T07:09:36.950Z,11.63
2023-03-22T07:12:09.487Z,9.23
2023-03-22T07:14:39.611Z,10.50
2023-03-22T07:17:14.521Z,9.03
2023-03-22T07:19:44.974Z,12.47
2023-03-22T07:22:15.515Z,8.60
2023-03-22T07:24:56.271Z,13.83
2023-03-22T07:27:17.634Z,7.47
2023-03-22T07:29:47.633Z,10.00
2023-03-22T07:32:16.986Z,8.90
2023-03-22T07:34:48.333Z,11.85
2023-03-22T07:37:19.252Z,8.65
2023-03-22T07:39:48.882Z,10.43
2023-03-22T07:42:18.189Z,11.08
2023-03-22T07:44:55.141Z,12.03
2023-03-22T07:47:39.895Z,8.43
2023-03-22T07:50:12.966Z,12.45
2023-03-22T07:52:44.443Z,9.68
2023-03-22T07:55:15.420Z,11.18
2023-03-22T07:57:44.887Z,10.72
2023-03-22T08:00:17.130Z,14.00
2023-03-22T08:02:48.088Z,13.18
2023-03-22T08:05:19.310Z,11.40
2023-03-22T08:07:51.593Z,8.73
2023-03-22T08:10:20.977Z,9.40
2023-03-22T08:12:50.938Z,13.03
2023-03-22T08:15:22.674Z,11.48
2023-03-22T08:17:53.129Z,12.63
2023-03-22T08:20:27.489Z,10.90
2023-03-22T08:22:58.592Z,12.82
2023-03-22T08:25:47.808Z,9.23
2023-03-22T08:28:17.764Z,14.05
2023-03-22T08:30:48.729Z,15.93
2023-03-22T08:33:19.891Z,11.97
2023-03-22T08:35:49.397Z,10.40
2023-03-22T08:38:20.008Z,10.50
2023-03-22T08:40:50.969Z,9.57
2023-03-22T08:43:21.963Z,10.10
2023-03-22T08:45:52.784Z,10.48
2023-03-22T08:48:22.598Z,12.07
2023-03-22T08:51:09.006Z,11.38
2023-03-22T08:53:42.760Z,12.03
2023-03-22T08:56:27.267Z,12.10
2023-03-22T08:58:58.193Z,10.93
2023-03-22T09:01:46.113Z,12.07
2023-03-22T09:04:15.669Z,13.53
2023-03-22T09:06:46.983Z,11.90
2023-03-22T09:09:16.587Z,7.70
2023-03-22T09:11:47.685Z,11.22
2023-03-22T09:14:16.974Z,8.15
2023-03-22T09:16:48.739Z,11.78
2023-03-22T09:19:18.511Z,16.80
2023-03-22T09:21:48.544Z,10.72
2023-03-22T09:24:19.509Z,13.43
2023-03-22T09:26:51.329Z,12.13
2023-03-22T09:29:21.177Z,7.08
2023-03-22T09:31:51.136Z,13.05
2023-03-22T09:34:22.272Z,13.50
2023-03-22T09:36:53.168Z,9.20
2023-03-22T09:41:57.238Z,9.20
2023-03-22T09:44:29.545Z,6.15
2023-03-22T09:47:01.210Z,8.90
2023-03-22T09:49:47.201Z,12.37
2023-03-22T09:52:10.355Z,10.10
2023-03-22T09:57:32.599Z,10.70
2023-03-22T10:00:21.045Z,11.73
2023-03-22T10:03:11.006Z,10.95
2023-03-22T10:05:45.829Z,15.10
2023-03-22T10:08:42.180Z,10.32
2023-03-22T10:11:20.353Z,10.98
2023-03-22T10:13:58.806Z,12.50
2023-03-22T10:16:32.384Z,12.28
2023-03-22T10:19:07.347Z,12.50
2023-03-22T10:21:37.374Z,9.55
2023-03-22T10:24:16.289Z,11.03
2023-03-22T10:26:49.542Z,11.90
2023-03-22T10:29:37.297Z,8.45
2023-03-22T10:32:28.098Z,8.90
2023-03-22T10:34:57.950Z,9.10
2023-03-22T10:37:32.633Z,7.12
2023-03-22T10:40:08.106Z,9.03
2023-03-22T10:42:38.784Z,14.90
2023-03-22T10:45:11.590Z,13.75
2023-03-22T10:47:46.662Z,10.50
2023-03-22T10:50:28.743Z,12.68
2023-03-22T10:53:04.431Z,8.93
2023-03-22T10:55:33.747Z,13.53
2023-03-22T10:58:20.591Z,8.48
2023-03-22T11:00:55.295Z,8.33
2023-03-22T11:03:34.027Z,8.70
2023-03-22T11:06:12.422Z,9.88
2023-03-22T11:08:50.035Z,9.43
2023-03-22T11:11:31.454Z,8.93
2023-03-22T11:14:10.310Z,10.43
2023-03-22T11:16:59.912Z,10.38
2023-03-22T11:19:35.593Z,11.25
2023-03-22T11:22:24.876Z,8.15
2023-03-22T11:24:56.825Z,8.68
2023-03-22T11:27:33.172Z,13.18
2023-03-22T11:30:11.332Z,10.18
2023-03-22T11:32:41.722Z,8.98
2023-03-22T11:35:20.736Z,7.37
2023-03-22T11:37:52.748Z,7.25
2023-03-22T11:40:31.357Z,7.08
2023-03-22T11:43:06.358Z,7.15
2023-03-22T11:45:37.771Z,8.40
2023-03-22T11:48:10.599Z,9.53
2023-03-22T11:50:41.821Z,6.17
2023-03-22T11:53:19.617Z,9.65
2023-03-22T11:55:51.646Z,6.65
2023-03-22T11:58:32.372Z,11.03
2023-03-22T12:01:03.393Z,10.93
2023-03-22T12:03:38.869Z,9.08
2023-03-22T12:06:09.929Z,6.25
2023-03-22T12:09:00.358Z,10.68
2023-03-22T12:11:38.762Z,9.18
2023-03-22T12:14:13.680Z,9.35
2023-03-22T12:16:55.384Z,12.07
2023-03-22T12:19:30.688Z,9.63
2023-03-22T12:22:00.961Z,8.45
2023-03-22T12:24:32.630Z,12.90
2023-03-22T12:27:07.913Z,8.93
2023-03-22T12:29:39.662Z,9.25
2023-03-22T12:32:15.707Z,9.30
2023-03-22T12:34:48.719Z,10.15
2023-03-22T12:37:23.630Z,11.08
2023-03-22T12:40:11.363Z,10.65
2023-03-22T12:43:01.918Z,9.38
2023-03-22T12:45:33.218Z,12.05
2023-03-22T12:48:09.044Z,11.28
2023-03-22T12:50:41.984Z,10.00
2023-03-22T12:53:19.445Z,10.00
2023-03-22T12:55:49.684Z,8.58
2023-03-22T12:58:21.967Z,11.25
2023-03-22T13:00:58.298Z,8.43
2023-03-22T13:03:31.268Z,11.90
2023-03-22T13:06:03.728Z,11.38
2023-03-22T13:09:04.729Z,9.48
2023-03-22T13:11:34.039Z,10.18
2023-03-22T13:14:03.898Z,10.65
2023-03-22T13:16:54.068Z,9.40
2023-03-22T13:19:29.829Z,10.95
2023-03-22T13:22:26.398Z,14.15
2023-03-22T13:25:01.125Z,12.30
2023-03-22T13:28:06.645Z,9.65
2023-03-22T13:30:50.715Z,13.80
2023-03-22T13:33:23.941Z,13.05
2023-03-22T13:35:57.300Z,12.30
2023-03-22T13:38:29.761Z,11.03
2023-03-22T13:41:16.643Z,8.90
2023-03-22T13:43:54.845Z,11.30
2023-03-22T13:46:27.494Z,13.13
2023-03-22T13:49:05.485Z,12.05
2023-03-22T13:51:35.355Z,13.20
2023-03-22T13:54:17.156Z,12.58
2023-03-22T13:56:56.477Z,13.53
2023-03-22T13:59:30.602Z,11.75
2023-03-22T14:02:23.600Z,15.38
2023-03-22T14:05:07.720Z,11.73
2023-03-22T14:08:19.998Z,14.33
2023-03-22T14:11:12.228Z,19.65
2023-03-22T14:13:52.430Z,12.88
2023-03-22T14:16:51.754Z,15.78
2023-03-22T14:19:29.472Z,14.30
